createdAt,value
2018-07-21T00:00:56.059Z,19.10
2018-07-21T00:03:24.634Z,19.10
2018-07-21T00:05:52.993Z,19.00
2018-07-21T00:08:21.266Z,19.00
2018-07-21T00:10:52.229Z,19.00
2018-07-21T00:13:34.609Z,19.00
2018-07-21T00:16:06.101Z,19.00
2018-07-21T00:18:44.884Z,19.00
2018-07-21T00:21:19.958Z,19.00
2018-07-21T00:23:50.313Z,19.00
2018-07-21T00:26:20.739Z,18.90
2018-07-21T00:28:49.189Z,18.90
2018-07-21T00:31:17.910Z,18.90
2018-07-21T00:33:52.075Z,18.90
2018-07-21T00:36:20.228Z,18.90
2018-07-21T00:38:54.893Z,18.80
2018-07-21T00:41:23.132Z,18.80
2018-07-21T00:43:56.159Z,18.80
2018-07-21T00:46:26.434Z,18.80
2018-07-21T00:48:54.606Z,18.80
2018-07-21T00:51:29.240Z,18.80
2018-07-21T00:53:57.430Z,18.70
2018-07-21T00:56:28.346Z,18.70
2018-07-21T00:58:56.563Z,18.70
2018-07-21T01:01:29.912Z,18.70
2018-07-21T01:04:09.926Z,18.60
2018-07-21T01:06:40.291Z,18.60
2018-07-21T01:09:10.060Z,18.60
2018-07-21T01:11:52.134Z,18.70
2018-07-21T01:14:21.117Z,18.60
2018-07-21T01:16:56.472Z,18.70
2018-07-21T01:19:31.299Z,18.60
2018-07-21T01:21:59.534Z,18.70
2018-07-21T01:24:30.695Z,18.70
2018-07-21T01:29:43.870Z,18.80
2018-07-21T01:32:18.140Z,18.80
2018-07-21T01:34:52.765Z,18.80
2018-07-21T01:37:26.777Z,18.80
2018-07-21T01:39:59.244Z,18.70
2018-07-21T01:42:29.489Z,18.70
2018-07-21T01:44:57.649Z,18.70
2018-07-21T01:47:30.044Z,18.60
2018-07-21T01:50:05.558Z,18.60
2018-07-21T01:52:40.359Z,18.60
2018-07-21T01:55:08.658Z,18.50
2018-07-21T01:57:36.961Z,18.50
2018-07-21T02:00:11.557Z,18.50
2018-07-21T02:02:44.642Z,18.40
2018-07-21T02:05:17.787Z,18.40
2018-07-21T02:07:45.935Z,18.30
2018-07-21T02:10:19.133Z,18.30
2018-07-21T02:12:51.605Z,18.30
2018-07-21T02:15:23.118Z,18.20
2018-07-21T02:17:57.721Z,18.20
2018-07-21T02:20:37.678Z,18.10
2018-07-21T02:23:11.959Z,18.10
2018-07-21T02:25:42.467Z,18.00
2018-07-21T02:28:10.801Z,18.00
2018-07-21T02:30:39.025Z,18.00
2018-07-21T02:33:15.147Z,18.00
2018-07-21T02:35:46.458Z,17.90
2018-07-21T02:38:16.928Z,17.90
2018-07-21T02:40:47.129Z,17.90
2018-07-21T02:45:50.385Z,17.00
2018-07-21T02:48:20.923Z,17.90
2018-07-21T02:51:00.441Z,17.90
2018-07-21T02:53:31.601Z,17.90
2018-07-21T02:56:00.009Z,17.90
2018-07-21T02:58:28.240Z,17.90
2018-07-21T03:01:05.993Z,17.90
2018-07-21T03:03:36.366Z,17.80
2018-07-21T03:06:04.554Z,17.80
2018-07-21T03:08:37.795Z,17.80
2018-07-21T03:11:10.856Z,17.90
2018-07-21T03:13:39.421Z,17.80
2018-07-21T03:16:09.630Z,17.80
2018-07-21T03:18:37.775Z,17.90
2018-07-21T03:21:09.257Z,17.90
2018-07-21T03:23:40.178Z,17.90
2018-07-21T03:26:08.766Z,17.90
2018-07-21T03:28:37.042Z,17.90
2018-07-21T03:31:05.200Z,17.90
2018-07-21T03:33:45.131Z,17.90
2018-07-21T03:36:13.398Z,17.90
2018-07-21T03:38:41.590Z,18.00
2018-07-21T03:41:21.440Z,18.00
2018-07-21T03:43:49.849Z,18.00
2018-07-21T03:46:18.096Z,18.00
2018-07-21T03:48:57.824Z,18.00
2018-07-21T03:51:26.026Z,18.00
2018-07-21T03:53:57.379Z,18.00
2018-07-21T03:56:28.527Z,18.00
2018-07-21T03:58:59.661Z,18.00
2018-07-21T04:01:27.961Z,18.00
2018-07-21T04:04:00.931Z,18.00
2018-07-21T04:06:31.485Z,18.00
2018-07-21T04:09:02.323Z,18.00
2018-07-21T04:11:37.557Z,18.00
2018-07-21T04:14:17.433Z,18.00
2018-07-21T04:16:45.547Z,18.00
2018-07-21T04:19:16.786Z,18.00
2018-07-21T04:21:48.224Z,18.10
2018-07-21T04:24:33.634Z,18.10
2018-07-21T04:27:06.917Z,18.10
2018-07-21T04:29:38.397Z,18.10
2018-07-21T04:32:06.623Z,18.10
2018-07-21T04:34:34.855Z,18.10
2018-07-21T04:37:05.962Z,18.10
2018-07-21T04:39:46.661Z,18.10
2018-07-21T04:42:19.708Z,18.10
2018-07-21T04:44:49.993Z,18.10
2018-07-21T04:47:18.214Z,18.10
2018-07-21T04:49:52.945Z,18.10
2018-07-21T04:52:21.128Z,18.10
2018-07-21T04:54:51.404Z,18.10
2018-07-21T04:57:22.604Z,18.20
2018-07-21T04:59:53.832Z,18.20
2018-07-21T05:02:22.002Z,18.20
2018-07-21T05:04:56.565Z,18.20
2018-07-21T05:07:28.869Z,18.20
2018-07-21T05:10:03.527Z,18.20
2018-07-21T05:12:31.676Z,18.20
2018-07-21T05:15:02.735Z,18.20
2018-07-21T05:17:30.915Z,18.20
2018-07-21T05:20:04.183Z,18.20
2018-07-21T05:22:46.764Z,18.20
2018-07-21T05:27:47.133Z,18.10
2018-07-21T05:30:17.510Z,18.20
2018-07-21T05:32:45.665Z,18.20
2018-07-21T05:35:19.527Z,18.20
2018-07-21T05:37:49.819Z,18.20
2018-07-21T05:40:17.940Z,18.20
2018-07-21T05:42:52.483Z,18.20
2018-07-21T05:45:30.071Z,18.20
2018-07-21T05:47:58.300Z,18.20
2018-07-21T05:52:54.468Z,18.30
2018-07-21T05:55:25.434Z,18.30
2018-07-21T05:57:55.973Z,18.30
2018-07-21T06:00:34.399Z,18.30
2018-07-21T06:03:15.068Z,18.30
2018-07-21T06:05:48.152Z,18.30
2018-07-21T06:08:20.574Z,18.30
2018-07-21T06:10:59.190Z,18.30
2018-07-21T06:13:36.152Z,18.40
2018-07-21T06:16:04.374Z,18.40
2018-07-21T06:18:39.038Z,18.40
2018-07-21T06:21:07.327Z,18.40
2018-07-21T06:23:40.849Z,18.40
2018-07-21T06:26:18.568Z,18.40
2018-07-21T06:28:46.822Z,18.40
2018-07-21T06:31:15.024Z,18.50
2018-07-21T06:33:45.958Z,18.50
2018-07-21T06:36:14.309Z,18.60
2018-07-21T06:38:42.718Z,18.70
2018-07-21T06:41:13.737Z,18.70
2018-07-21T06:43:53.879Z,18.80
2018-07-21T06:46:22.062Z,18.80
2018-07-21T06:48:53.042Z,18.90
2018-07-21T06:51:23.248Z,19.00
2018-07-21T06:53:51.417Z,20.00
2018-07-21T06:56:26.841Z,19.20
2018-07-21T06:59:00.123Z,19.30
2018-07-21T07:01:32.632Z,19.50
2018-07-21T07:04:15.451Z,19.60
2018-07-21T07:06:43.693Z,19.80
2018-07-21T07:09:16.681Z,19.80
2018-07-21T07:11:47.033Z,19.90
2018-07-21T07:14:17.553Z,19.90
2018-07-21T07:16:45.975Z,20.10
2018-07-21T07:19:14.138Z,20.20
2018-07-21T07:21:46.540Z,20.40
2018-07-21T07:24:23.458Z,20.60
2018-07-21T07:26:51.746Z,20.70
2018-07-21T07:29:20.051Z,20.80
2018-07-21T07:31:50.959Z,20.90
2018-07-21T07:34:21.128Z,20.90
2018-07-21T07:36:49.227Z,21.00
2018-07-21T07:39:20.498Z,21.10
2018-07-21T07:41:50.734Z,21.20
2018-07-21T07:44:18.881Z,21.30
2018-07-21T07:46:51.503Z,21.30
2018-07-21T07:49:19.638Z,21.30
2018-07-21T07:51:52.187Z,21.40
2018-07-21T07:54:23.149Z,21.50
2018-07-21T07:56:51.353Z,21.50
2018-07-21T07:59:21.714Z,21.50
2018-07-21T08:02:01.452Z,21.60
2018-07-21T08:04:29.571Z,21.60
2018-07-21T08:07:00.433Z,21.60
2018-07-21T08:09:28.575Z,21.60
2018-07-21T08:12:02.856Z,21.60
2018-07-21T08:14:35.345Z,21.50
2018-07-21T08:17:15.148Z,21.60
2018-07-21T08:19:43.314Z,21.60
2018-07-21T08:22:14.414Z,21.70
2018-07-21T08:24:44.689Z,21.70
2018-07-21T08:27:12.802Z,21.70
2018-07-21T08:29:43.975Z,21.70
2018-07-21T08:32:14.478Z,21.70
2018-07-21T08:34:46.943Z,21.70
2018-07-21T08:37:19.181Z,21.80
2018-07-21T08:39:47.369Z,21.80
2018-07-21T08:42:19.689Z,22.00
2018-07-21T08:44:54.941Z,22.10
2018-07-21T08:47:28.537Z,22.30
2018-07-21T08:50:01.024Z,22.50
2018-07-21T08:52:40.805Z,22.50
2018-07-21T08:55:08.940Z,22.60
2018-07-21T08:57:48.727Z,22.80
2018-07-21T09:00:16.943Z,22.90
2018-07-21T09:02:49.342Z,23.00
2018-07-21T09:05:26.921Z,23.00
2018-07-21T09:07:55.106Z,23.00
2018-07-21T09:10:30.620Z,23.10
2018-07-21T09:13:01.761Z,23.20
2018-07-21T09:15:34.090Z,23.20
2018-07-21T09:20:39.464Z,23.30
2018-07-21T09:23:13.753Z,23.40
2018-07-21T09:25:44.658Z,23.40
2018-07-21T09:28:12.910Z,23.40
2018-07-21T09:30:47.481Z,23.40
2018-07-21T09:33:19.804Z,23.50
2018-07-21T09:35:53.867Z,23.80
2018-07-21T09:38:24.048Z,24.00
2018-07-21T09:40:52.249Z,24.10
2018-07-21T09:43:23.353Z,24.20
2018-07-21T09:46:01.791Z,24.20
2018-07-21T09:48:32.878Z,24.30
2018-07-21T09:53:33.560Z,24.30
2018-07-21T09:56:07.904Z,24.40
2018-07-21T09:58:41.234Z,24.50
2018-07-21T10:01:13.761Z,24.60
2018-07-21T10:03:46.162Z,24.60
2018-07-21T10:06:19.750Z,24.70
2018-07-21T10:08:50.784Z,24.80
2018-07-21T10:11:19.181Z,24.80
2018-07-21T10:13:47.353Z,25.00
2018-07-21T10:18:55.272Z,25.10
2018-07-21T10:21:28.468Z,25.00
2018-07-21T10:25:03.766Z,25.20
2018-07-21T10:27:39.651Z,25.30
2018-07-21T10:30:12.831Z,25.30
2018-07-21T10:32:41.314Z,25.20
2018-07-21T10:35:09.626Z,25.30
2018-07-21T10:37:37.775Z,25.40
2018-07-21T10:40:12.450Z,25.40
2018-07-21T10:42:40.670Z,25.40
2018-07-21T10:45:20.468Z,25.40
2018-07-21T10:47:48.573Z,25.40
2018-07-21T10:50:20.781Z,25.50
2018-07-21T10:52:52.177Z,25.60
2018-07-21T10:55:23.350Z,25.60
2018-07-21T10:57:51.932Z,25.40
2018-07-21T11:00:20.100Z,25.40
2018-07-21T11:02:55.465Z,25.30
2018-07-21T11:08:05.046Z,25.40
2018-07-21T11:10:35.520Z,25.50
2018-07-21T11:13:13.709Z,25.50
2018-07-21T11:15:42.016Z,25.50
2018-07-21T11:18:10.211Z,25.50
2018-07-21T11:20:42.561Z,25.50
2018-07-21T11:23:17.629Z,25.50
2018-07-21T11:25:45.737Z,25.60
2018-07-21T11:28:23.276Z,25.60
2018-07-21T11:30:51.449Z,25.70
2018-07-21T11:33:22.370Z,25.80
2018-07-21T11:35:50.786Z,25.90
2018-07-21T11:38:21.553Z,26.00
2018-07-21T11:40:51.849Z,26.00
2018-07-21T11:43:19.973Z,26.10
2018-07-21T11:45:54.469Z,26.10
2018-07-21T11:48:29.149Z,26.10
2018-07-21T11:50:57.357Z,26.10
2018-07-21T11:53:31.929Z,26.10
2018-07-21T11:56:04.125Z,26.10
2018-07-21T11:58:35.186Z,26.10
2018-07-21T12:01:03.618Z,26.30
2018-07-21T12:03:31.812Z,26.40
2018-07-21T12:06:05.198Z,26.60
2018-07-21T12:08:47.187Z,26.70
2018-07-21T12:11:17.415Z,26.90
2018-07-21T12:13:45.649Z,27.00
2018-07-21T12:16:20.352Z,27.10
2018-07-21T12:18:48.551Z,27.20
2018-07-21T12:21:21.622Z,27.20
2018-07-21T12:26:22.327Z,27.00
2018-07-21T12:28:50.491Z,27.00
2018-07-21T12:31:28.321Z,27.10
2018-07-21T12:33:56.452Z,27.20
2018-07-21T12:36:28.864Z,27.30
2018-07-21T12:39:06.433Z,27.30
2018-07-21T12:41:34.582Z,27.30
2018-07-21T12:44:14.640Z,27.40
2018-07-21T12:46:44.886Z,27.30
2018-07-21T12:49:13.041Z,27.40
2018-07-21T12:51:44.108Z,27.50
2018-07-21T12:54:12.431Z,27.50
2018-07-21T12:59:12.890Z,27.60
2018-07-21T13:01:47.254Z,27.70
2018-07-21T13:04:17.468Z,27.60
2018-07-21T13:06:45.834Z,27.60
2018-07-21T13:09:14.033Z,27.60
2018-07-21T13:11:48.532Z,27.60
2018-07-21T13:14:21.831Z,27.70
2018-07-21T13:16:56.380Z,27.70
2018-07-21T13:19:27.710Z,27.70
2018-07-21T13:22:03.020Z,27.80
2018-07-21T13:24:36.246Z,27.80
2018-07-21T13:27:07.294Z,27.90
2018-07-21T13:29:40.495Z,27.90
2018-07-21T13:32:13.226Z,27.90
2018-07-21T13:34:41.420Z,27.90
2018-07-21T13:37:22.061Z,27.90
2018-07-21T13:39:58.139Z,27.80
2018-07-21T13:42:34.085Z,27.70
2018-07-21T13:45:02.273Z,27.70
2018-07-21T13:47:38.937Z,27.70
2018-07-21T13:50:07.134Z,27.70
2018-07-21T13:52:49.155Z,27.60
2018-07-21T13:55:19.956Z,27.60
2018-07-21T13:57:52.636Z,27.50
2018-07-21T14:00:25.873Z,27.40
2018-07-21T14:03:05.816Z,27.40
2018-07-21T14:05:33.958Z,27.30
2018-07-21T14:08:07.058Z,27.20
2018-07-21T14:10:37.943Z,27.20
2018-07-21T14:13:06.177Z,27.20
2018-07-21T14:15:41.748Z,27.20
2018-07-21T14:18:16.347Z,27.20
2018-07-21T14:20:44.497Z,27.20
2018-07-21T14:23:15.416Z,27.20
2018-07-21T14:25:43.713Z,27.10
2018-07-21T14:30:50.521Z,27.10
2018-07-21T14:33:21.921Z,27.10
2018-07-21T14:36:01.989Z,27.10
2018-07-21T14:38:30.488Z,27.10
2018-07-21T14:41:00.685Z,27.00
2018-07-21T14:43:28.997Z,27.00
2018-07-21T14:46:08.812Z,27.00
2018-07-21T14:48:39.112Z,27.00
2018-07-21T14:51:07.312Z,27.00
2018-07-21T14:53:39.807Z,26.90
2018-07-21T14:56:10.734Z,26.90
2018-07-21T14:58:39.023Z,26.90
2018-07-21T15:01:07.239Z,26.90
2018-07-21T15:03:38.237Z,26.90
2018-07-21T15:06:08.432Z,26.80
2018-07-21T15:08:36.638Z,26.80
2018-07-21T15:11:11.406Z,26.80
2018-07-21T15:13:39.618Z,26.80
2018-07-21T15:16:14.396Z,26.80
2018-07-21T15:18:42.605Z,26.80
2018-07-21T15:21:16.313Z,26.80
2018-07-21T15:23:44.490Z,26.70
2018-07-21T15:26:19.463Z,26.70
2018-07-21T15:28:49.740Z,26.70
2018-07-21T15:31:18.102Z,26.70
2018-07-21T15:33:46.234Z,26.70
2018-07-21T15:36:17.148Z,26.70
2018-07-21T15:38:45.332Z,26.80
2018-07-21T15:41:21.970Z,26.90
2018-07-21T15:43:50.197Z,27.00
2018-07-21T15:46:23.128Z,27.10
2018-07-21T15:48:51.326Z,27.20
2018-07-21T15:51:21.397Z,27.30
2018-07-21T15:53:52.593Z,27.50
2018-07-21T15:56:20.746Z,27.60
2018-07-21T15:58:55.383Z,27.70
2018-07-21T16:01:23.683Z,27.80
2018-07-21T16:03:53.938Z,27.90
2018-07-21T16:06:33.661Z,27.90
2018-07-21T16:09:09.611Z,28.00
2018-07-21T16:11:49.453Z,28.10
2018-07-21T16:14:20.317Z,28.20
2018-07-21T16:16:48.544Z,28.40
2018-07-21T16:19:16.724Z,28.50
2018-07-21T16:21:51.577Z,28.60
2018-07-21T16:24:19.705Z,28.80
2018-07-21T16:26:55.790Z,29.00
2018-07-21T16:29:26.281Z,29.20
2018-07-21T16:32:04.791Z,29.30
2018-07-21T16:34:36.906Z,29.50
2018-07-21T16:37:05.285Z,29.50
2018-07-21T16:39:33.438Z,29.40
2018-07-21T16:42:08.062Z,29.60
2018-07-21T16:44:40.475Z,29.60
2018-07-21T16:47:13.230Z,29.70
2018-07-21T16:49:41.459Z,29.80
2018-07-21T16:52:12.305Z,29.80
2018-07-21T16:54:40.721Z,29.80
2018-07-21T16:57:08.886Z,29.60
2018-07-21T16:59:43.134Z,29.60
2018-07-21T17:02:16.340Z,29.50
2018-07-21T17:04:44.578Z,29.40
2018-07-21T17:07:12.516Z,29.30
2018-07-21T17:09:45.914Z,29.20
2018-07-21T17:12:23.812Z,29.10
2018-07-21T17:14:51.770Z,29.10
2018-07-21T17:17:21.779Z,29.00
2018-07-21T17:19:49.754Z,29.00
2018-07-21T17:22:19.726Z,28.90
2018-07-21T17:24:49.719Z,28.80
2018-07-21T17:27:20.166Z,28.70
2018-07-21T17:29:48.263Z,28.70
2018-07-21T17:32:19.079Z,28.70
2018-07-21T17:34:47.021Z,28.60
2018-07-21T17:37:19.435Z,28.50
2018-07-21T17:40:02.023Z,28.50
2018-07-21T17:42:39.765Z,28.40
2018-07-21T17:45:08.283Z,28.30
2018-07-21T17:47:36.766Z,28.20
2018-07-21T17:50:05.193Z,28.10
2018-07-21T17:52:33.717Z,28.10
2018-07-21T17:55:01.948Z,28.00
2018-07-21T17:57:32.934Z,28.00
2018-07-21T18:00:12.920Z,28.00
2018-07-21T18:02:41.061Z,28.00
2018-07-21T18:05:20.864Z,28.00
2018-07-21T18:07:49.389Z,27.90
2018-07-21T18:10:17.558Z,28.00
2018-07-21T18:12:57.397Z,28.00
2018-07-21T18:15:25.667Z,28.00
2018-07-21T18:17:53.860Z,28.00
2018-07-21T18:20:33.775Z,27.90
2018-07-21T18:23:02.101Z,27.90
2018-07-21T18:25:30.272Z,27.80
2018-07-21T18:28:05.719Z,27.80
2018-07-21T18:30:38.852Z,27.60
2018-07-21T18:33:10.020Z,27.50
2018-07-21T18:35:38.239Z,27.40
2018-07-21T18:38:11.679Z,27.30
2018-07-21T18:40:46.077Z,27.20
2018-07-21T18:45:42.689Z,26.90
2018-07-21T18:48:12.865Z,26.80
2018-07-21T18:50:41.522Z,26.70
2018-07-21T18:53:09.653Z,26.70
2018-07-21T18:55:42.186Z,26.60
2018-07-21T18:58:13.052Z,26.50
2018-07-21T19:00:43.309Z,26.40
2018-07-21T19:03:11.453Z,26.30
2018-07-21T19:05:42.626Z,26.20
2018-07-21T19:08:24.406Z,26.10
2018-07-21T19:10:55.672Z,26.10
2018-07-21T19:13:30.061Z,26.00
2018-07-21T19:16:41.113Z,25.90
2018-07-21T19:19:16.519Z,25.80
2018-07-21T19:21:47.545Z,25.70
2018-07-21T19:24:15.692Z,25.60
2018-07-21T19:26:54.378Z,25.50
2018-07-21T19:29:22.599Z,25.40
2018-07-21T19:32:00.628Z,25.30
2018-07-21T19:34:30.926Z,25.20
2018-07-21T19:36:59.099Z,25.10
2018-07-21T19:39:32.596Z,25.00
2018-07-21T19:42:03.947Z,24.80
2018-07-21T19:44:45.624Z,24.70
2018-07-21T19:47:13.890Z,24.60
2018-07-21T19:49:47.139Z,24.50
2018-07-21T19:52:22.482Z,24.40
2018-07-21T19:54:55.573Z,24.30
2018-07-21T19:57:23.692Z,24.20
2018-07-21T19:59:58.333Z,24.10
2018-07-21T20:02:26.593Z,24.00
2018-07-21T20:04:57.968Z,23.80
2018-07-21T20:07:33.213Z,23.80
2018-07-21T20:10:08.746Z,23.70
2018-07-21T20:12:41.925Z,23.60
2018-07-21T20:15:12.995Z,23.50
2018-07-21T20:17:45.310Z,23.50
2018-07-21T20:20:20.476Z,23.40
2018-07-21T20:23:02.475Z,23.40
2018-07-21T20:25:30.678Z,23.30
2018-07-21T20:28:01.580Z,23.30
2018-07-21T20:30:30.142Z,23.20
2018-07-21T20:33:00.395Z,23.20
2018-07-21T20:35:28.556Z,23.20
2018-07-21T20:38:04.070Z,23.20
2018-07-21T20:40:36.756Z,23.10
2018-07-21T20:43:04.945Z,23.10
2018-07-21T20:45:39.458Z,23.10
2018-07-21T20:48:12.887Z,23.00
2018-07-21T20:50:50.283Z,23.00
2018-07-21T20:53:25.823Z,23.00
2018-07-21T20:56:00.368Z,22.90
2018-07-21T20:58:28.536Z,22.80
2018-07-21T21:01:00.917Z,22.80
2018-07-21T21:03:31.996Z,22.80
2018-07-21T21:06:00.224Z,22.70
2018-07-21T21:08:31.174Z,22.70
2018-07-21T21:11:01.893Z,22.70
2018-07-21T21:13:34.277Z,22.60
2018-07-21T21:16:07.561Z,22.60
2018-07-21T21:18:38.057Z,22.50
2018-07-21T21:21:08.293Z,22.50
2018-07-21T21:23:36.469Z,22.50
2018-07-21T21:26:09.876Z,22.50
2018-07-21T21:28:44.376Z,22.50
2018-07-21T21:31:15.340Z,22.40
2018-07-21T21:33:46.476Z,22.50
2018-07-21T21:36:14.638Z,22.40
2018-07-21T21:38:45.629Z,22.40
2018-07-21T21:41:13.749Z,22.30
2018-07-21T21:43:48.325Z,22.30
2018-07-21T21:46:16.425Z,22.30
2018-07-21T21:48:47.866Z,22.30
2018-07-21T21:51:20.200Z,22.30
2018-07-21T21:53:50.393Z,22.20
2018-07-21T21:56:18.585Z,22.20
2018-07-21T21:58:56.715Z,22.10
2018-07-21T22:01:30.086Z,22.10
2018-07-21T22:04:10.830Z,22.10
2018-07-21T22:06:42.188Z,22.10
2018-07-21T22:09:13.124Z,22.10
2018-07-21T22:11:41.336Z,22.00
2018-07-21T22:14:17.266Z,22.00
2018-07-21T22:16:48.467Z,22.00
2018-07-21T22:19:16.686Z,21.90
2018-07-21T22:21:56.384Z,21.90
2018-07-21T22:24:24.561Z,21.90
2018-07-21T22:26:59.653Z,21.90
2018-07-21T22:29:38.235Z,21.90
2018-07-21T22:32:12.776Z,21.90
2018-07-21T22:34:45.853Z,21.80
2018-07-21T22:37:16.069Z,21.80
2018-07-21T22:39:44.278Z,21.70
2018-07-21T22:42:27.167Z,21.60
2018-07-21T22:44:57.419Z,21.60
2018-07-21T22:47:25.558Z,21.60
2018-07-21T22:50:01.121Z,21.50
2018-07-21T22:52:34.404Z,21.40
2018-07-21T22:55:08.950Z,21.40
2018-07-21T22:57:40.046Z,21.30
2018-07-21T23:00:12.511Z,21.30
2018-07-21T23:02:44.883Z,21.30
2018-07-21T23:05:13.249Z,21.30
2018-07-21T23:07:41.439Z,21.20
2018-07-21T23:10:16.926Z,21.20
2018-07-21T23:12:45.241Z,21.20
2018-07-21T23:15:18.265Z,21.20
2018-07-21T23:17:48.600Z,21.10
2018-07-21T23:20:16.761Z,21.10
2018-07-21T23:22:52.704Z,21.10
2018-07-21T23:25:23.836Z,21.10
2018-07-21T23:27:52.986Z,21.10
2018-07-21T23:30:27.497Z,21.10
2018-07-21T23:33:02.033Z,21.00
2018-07-21T23:35:38.847Z,21.00
2018-07-21T23:38:07.328Z,20.90
2018-07-21T23:40:35.642Z,20.90
2018-07-21T23:43:03.818Z,20.90
2018-07-21T23:45:41.641Z,20.90
2018-07-21T23:48:09.792Z,20.90
2018-07-21T23:50:40.890Z,20.80
2018-07-21T23:53:20.574Z,20.80
2018-07-21T23:55:51.620Z,20.80
2018-07-21T23:58:19.910Z,20.70
